sensor_id;sensor_type;location;lat;lon;timestamp;temperature;humidity
64880;HTU21D;51374;45.124;36.712;2022-09-30T00:01:45;20.43;83.61
64880;HTU21D;51374;45.124;36.712;2022-09-30T00:04:17;20.42;83.60
64880;HTU21D;51374;45.124;36.712;2022-09-30T00:06:44;20.41;83.64
64880;HTU21D;51374;45.124;36.712;2022-09-30T00:09:11;20.41;83.68
64880;HTU21D;51374;45.124;36.712;2022-09-30T00:11:37;20.40;83.71
64880;HTU21D;51374;45.124;36.712;2022-09-30T00:14:04;20.39;83.69
64880;HTU21D;51374;45.124;36.712;2022-09-30T00:16:33;20.39;83.73
64880;HTU21D;51374;45.124;36.712;2022-09-30T00:19:00;20.39;83.78
64880;HTU21D;51374;45.124;36.712;2022-09-30T00:21:27;20.37;83.81
64880;HTU21D;51374;45.124;36.712;2022-09-30T00:23:54;20.36;83.81
64880;HTU21D;51374;45.124;36.712;2022-09-30T00:26:21;20.34;83.84
64880;HTU21D;51374;45.124;36.712;2022-09-30T00:28:53;20.34;83.93
64880;HTU21D;51374;45.124;36.712;2022-09-30T00:31:20;20.35;83.91
64880;HTU21D;51374;45.124;36.712;2022-09-30T00:33:47;20.35;83.94
64880;HTU21D;51374;45.124;36.712;2022-09-30T00:38:58;20.33;83.97
64880;HTU21D;51374;45.124;36.712;2022-09-30T00:41:25;20.34;83.96
64880;HTU21D;51374;45.124;36.712;2022-09-30T00:43:52;20.34;84.03
64880;HTU21D;51374;45.124;36.712;2022-09-30T00:46:26;20.35;84.00
64880;HTU21D;51374;45.124;36.712;2022-09-30T00:48:54;20.35;84.02
64880;HTU21D;51374;45.124;36.712;2022-09-30T00:51:30;20.34;84.00
64880;HTU21D;51374;45.124;36.712;2022-09-30T00:54:02;20.34;84.03
64880;HTU21D;51374;45.124;36.712;2022-09-30T00:56:31;20.33;84.04
64880;HTU21D;51374;45.124;36.712;2022-09-30T00:59:00;20.31;84.05
64880;HTU21D;51374;45.124;36.712;2022-09-30T01:01:28;20.30;84.13
64880;HTU21D;51374;45.124;36.712;2022-09-30T01:04:01;20.30;84.09
64880;HTU21D;51374;45.124;36.712;2022-09-30T01:06:28;20.30;84.13
64880;HTU21D;51374;45.124;36.712;2022-09-30T01:08:54;20.29;84.14
64880;HTU21D;51374;45.124;36.712;2022-09-30T01:11:23;20.29;84.16
64880;HTU21D;51374;45.124;36.712;2022-09-30T01:13:53;20.27;84.15
64880;HTU21D;51374;45.124;36.712;2022-09-30T01:17:02;20.27;84.21
64880;HTU21D;51374;45.124;36.712;2022-09-30T01:30:19;20.26;84.28
64880;HTU21D;51374;45.124;36.712;2022-09-30T01:38:27;20.24;84.39
64880;HTU21D;51374;45.124;36.712;2022-09-30T01:43:32;20.22;84.45
64880;HTU21D;51374;45.124;36.712;2022-09-30T01:46:08;20.22;84.46
64880;HTU21D;51374;45.124;36.712;2022-09-30T01:48:57;20.21;84.51
64880;HTU21D;51374;45.124;36.712;2022-09-30T01:51:40;20.21;84.48
64880;HTU21D;51374;45.124;36.712;2022-09-30T01:54:24;20.21;84.52
64880;HTU21D;51374;45.124;36.712;2022-09-30T01:56:57;20.20;84.53
64880;HTU21D;51374;45.124;36.712;2022-09-30T01:59:34;20.21;84.54
64880;HTU21D;51374;45.124;36.712;2022-09-30T02:02:23;20.21;84.64
64880;HTU21D;51374;45.124;36.712;2022-09-30T02:05:06;20.21;84.64
64880;HTU21D;51374;45.124;36.712;2022-09-30T02:07:42;20.20;84.72
64880;HTU21D;51374;45.124;36.712;2022-09-30T02:10:26;20.20;84.58
64880;HTU21D;51374;45.124;36.712;2022-09-30T02:13:07;20.20;84.61
64880;HTU21D;51374;45.124;36.712;2022-09-30T02:15:42;20.18;84.68
64880;HTU21D;51374;45.124;36.712;2022-09-30T02:18:16;20.18;84.67
64880;HTU21D;51374;45.124;36.712;2022-09-30T02:20:48;20.17;84.71
64880;HTU21D;51374;45.124;36.712;2022-09-30T02:23:21;20.17;84.72
64880;HTU21D;51374;45.124;36.712;2022-09-30T02:28:26;20.15;84.69
64880;HTU21D;51374;45.124;36.712;2022-09-30T02:30:57;20.14;84.73
64880;HTU21D;51374;45.124;36.712;2022-09-30T02:36:35;20.14;84.79
64880;HTU21D;51374;45.124;36.712;2022-09-30T02:39:24;20.13;84.84
64880;HTU21D;51374;45.124;36.712;2022-09-30T02:41:56;20.13;84.85
64880;HTU21D;51374;45.124;36.712;2022-09-30T02:44:25;20.11;84.84
64880;HTU21D;51374;45.124;36.712;2022-09-30T02:46:55;20.11;84.90
64880;HTU21D;51374;45.124;36.712;2022-09-30T02:49:35;20.09;84.93
64880;HTU21D;51374;45.124;36.712;2022-09-30T02:55:18;20.09;84.94
64880;HTU21D;51374;45.124;36.712;2022-09-30T02:58:03;20.07;84.98
64880;HTU21D;51374;45.124;36.712;2022-09-30T03:00:31;20.06;84.95
64880;HTU21D;51374;45.124;36.712;2022-09-30T03:03:49;20.06;84.99
64880;HTU21D;51374;45.124;36.712;2022-09-30T03:05:50;20.05;85.09
64880;HTU21D;51374;45.124;36.712;2022-09-30T03:08:16;20.07;85.05
64880;HTU21D;51374;45.124;36.712;2022-09-30T03:10:43;20.05;85.06
64880;HTU21D;51374;45.124;36.712;2022-09-30T03:29:59;20.04;85.15
64880;HTU21D;51374;45.124;36.712;2022-09-30T03:35:14;20.05;85.12
64880;HTU21D;51374;45.124;36.712;2022-09-30T03:38:01;20.04;85.16
64880;HTU21D;51374;45.124;36.712;2022-09-30T03:43:15;20.06;85.15
64880;HTU21D;51374;45.124;36.712;2022-09-30T03:48:26;20.09;85.10
64880;HTU21D;51374;45.124;36.712;2022-09-30T03:50:54;20.10;85.11
64880;HTU21D;51374;45.124;36.712;2022-09-30T03:53:21;20.10;85.09
64880;HTU21D;51374;45.124;36.712;2022-09-30T03:55:49;20.12;85.07
64880;HTU21D;51374;45.124;36.712;2022-09-30T03:58:20;20.14;85.09
64880;HTU21D;51374;45.124;36.712;2022-09-30T04:00:50;20.17;85.05
64880;HTU21D;51374;45.124;36.712;2022-09-30T04:03:18;20.18;85.03
64880;HTU21D;51374;45.124;36.712;2022-09-30T04:05:45;20.21;84.97
64880;HTU21D;51374;45.124;36.712;2022-09-30T04:08:12;20.26;84.96
64880;HTU21D;51374;45.124;36.712;2022-09-30T04:10:41;20.28;84.90
64880;HTU21D;51374;45.124;36.712;2022-09-30T04:13:11;20.32;84.84
64880;HTU21D;51374;45.124;36.712;2022-09-30T04:15:37;20.37;84.84
64880;HTU21D;51374;45.124;36.712;2022-09-30T04:18:05;20.43;84.74
64880;HTU21D;51374;45.124;36.712;2022-09-30T04:20:32;20.47;84.69
64880;HTU21D;51374;45.124;36.712;2022-09-30T04:23:01;20.53;84.64
64880;HTU21D;51374;45.124;36.712;2022-09-30T04:25:27;20.58;84.52
64880;HTU21D;51374;45.124;36.712;2022-09-30T04:27:54;20.62;84.52
64880;HTU21D;51374;45.124;36.712;2022-09-30T04:30:20;20.68;84.42
64880;HTU21D;51374;45.124;36.712;2022-09-30T04:32:46;20.74;84.40
64880;HTU21D;51374;45.124;36.712;2022-09-30T04:35:13;20.78;84.39
64880;HTU21D;51374;45.124;36.712;2022-09-30T04:37:43;20.84;84.33
64880;HTU21D;51374;45.124;36.712;2022-09-30T04:40:10;20.89;84.29
64880;HTU21D;51374;45.124;36.712;2022-09-30T04:42:38;20.93;84.25
64880;HTU21D;51374;45.124;36.712;2022-09-30T04:45:04;21.00;84.19
64880;HTU21D;51374;45.124;36.712;2022-09-30T04:47:30;21.04;84.19
64880;HTU21D;51374;45.124;36.712;2022-09-30T04:49:56;21.08;84.14
64880;HTU21D;51374;45.124;36.712;2022-09-30T04:52:22;21.14;84.10
64880;HTU21D;51374;45.124;36.712;2022-09-30T04:54:48;21.19;84.10
64880;HTU21D;51374;45.124;36.712;2022-09-30T04:57:14;21.25;84.04
64880;HTU21D;51374;45.124;36.712;2022-09-30T04:59:40;21.31;83.97
64880;HTU21D;51374;45.124;36.712;2022-09-30T05:02:06;21.36;83.97
64880;HTU21D;51374;45.124;36.712;2022-09-30T05:04:33;21.44;83.90
64880;HTU21D;51374;45.124;36.712;2022-09-30T05:06:59;21.49;83.85
64880;HTU21D;51374;45.124;36.712;2022-09-30T05:09:26;21.52;83.84
64880;HTU21D;51374;45.124;36.712;2022-09-30T05:11:52;21.57;83.82
64880;HTU21D;51374;45.124;36.712;2022-09-30T05:14:18;21.62;83.82
64880;HTU21D;51374;45.124;36.712;2022-09-30T05:16:44;21.66;83.76
64880;HTU21D;51374;45.124;36.712;2022-09-30T05:19:10;21.72;83.75
64880;HTU21D;51374;45.124;36.712;2022-09-30T05:21:36;21.75;83.74
64880;HTU21D;51374;45.124;36.712;2022-09-30T05:24:02;21.79;83.74
64880;HTU21D;51374;45.124;36.712;2022-09-30T05:26:28;21.85;83.74
64880;HTU21D;51374;45.124;36.712;2022-09-30T05:28:54;21.95;83.68
64880;HTU21D;51374;45.124;36.712;2022-09-30T05:31:20;21.97;83.63
64880;HTU21D;51374;45.124;36.712;2022-09-30T05:33:46;22.04;83.60
64880;HTU21D;51374;45.124;36.712;2022-09-30T05:36:13;22.08;83.56
64880;HTU21D;51374;45.124;36.712;2022-09-30T05:38:40;22.13;83.53
64880;HTU21D;51374;45.124;36.712;2022-09-30T05:41:11;22.20;83.51
64880;HTU21D;51374;45.124;36.712;2022-09-30T05:43:42;22.24;83.45
64880;HTU21D;51374;45.124;36.712;2022-09-30T05:46:18;22.29;83.44
64880;HTU21D;51374;45.124;36.712;2022-09-30T05:48:44;22.34;83.38
64880;HTU21D;51374;45.124;36.712;2022-09-30T05:51:11;22.37;83.34
64880;HTU21D;51374;45.124;36.712;2022-09-30T05:53:38;22.40;83.41
64880;HTU21D;51374;45.124;36.712;2022-09-30T05:56:05;22.41;83.36
64880;HTU21D;51374;45.124;36.712;2022-09-30T05:58:31;22.47;83.36
64880;HTU21D;51374;45.124;36.712;2022-09-30T06:01:01;22.52;83.32
64880;HTU21D;51374;45.124;36.712;2022-09-30T06:03:28;22.56;83.26
64880;HTU21D;51374;45.124;36.712;2022-09-30T06:05:57;22.63;83.18
64880;HTU21D;51374;45.124;36.712;2022-09-30T06:08:23;22.69;83.15
64880;HTU21D;51374;45.124;36.712;2022-09-30T06:10:49;22.73;83.08
64880;HTU21D;51374;45.124;36.712;2022-09-30T06:13:15;22.79;83.03
64880;HTU21D;51374;45.124;36.712;2022-09-30T06:15:43;22.85;82.97
64880;HTU21D;51374;45.124;36.712;2022-09-30T06:18:09;22.90;82.91
64880;HTU21D;51374;45.124;36.712;2022-09-30T06:20:38;22.94;82.91
64880;HTU21D;51374;45.124;36.712;2022-09-30T06:23:03;23.00;82.87
64880;HTU21D;51374;45.124;36.712;2022-09-30T06:25:30;23.08;82.82
64880;HTU21D;51374;45.124;36.712;2022-09-30T06:27:57;23.13;82.74
64880;HTU21D;51374;45.124;36.712;2022-09-30T06:30:23;23.18;82.68
64880;HTU21D;51374;45.124;36.712;2022-09-30T06:32:49;23.24;82.63
64880;HTU21D;51374;45.124;36.712;2022-09-30T06:35:16;23.28;82.57
64880;HTU21D;51374;45.124;36.712;2022-09-30T06:37:44;23.34;82.54
64880;HTU21D;51374;45.124;36.712;2022-09-30T06:40:10;23.38;82.47
64880;HTU21D;51374;45.124;36.712;2022-09-30T06:42:36;23.44;82.46
64880;HTU21D;51374;45.124;36.712;2022-09-30T06:45:02;23.49;82.37
64880;HTU21D;51374;45.124;36.712;2022-09-30T06:47:28;23.55;82.37
64880;HTU21D;51374;45.124;36.712;2022-09-30T06:49:57;23.59;82.32
64880;HTU21D;51374;45.124;36.712;2022-09-30T06:52:24;23.65;82.25
64880;HTU21D;51374;45.124;36.712;2022-09-30T06:54:50;23.69;82.18
64880;HTU21D;51374;45.124;36.712;2022-09-30T06:57:17;23.74;82.13
64880;HTU21D;51374;45.124;36.712;2022-09-30T06:59:47;23.79;82.09
64880;HTU21D;51374;45.124;36.712;2022-09-30T07:02:13;23.83;82.03
64880;HTU21D;51374;45.124;36.712;2022-09-30T07:04:39;23.88;81.97
64880;HTU21D;51374;45.124;36.712;2022-09-30T07:07:05;23.91;81.97
64880;HTU21D;51374;45.124;36.712;2022-09-30T07:09:31;23.97;81.93
64880;HTU21D;51374;45.124;36.712;2022-09-30T07:11:57;24.01;81.86
64880;HTU21D;51374;45.124;36.712;2022-09-30T07:14:23;24.05;81.82
64880;HTU21D;51374;45.124;36.712;2022-09-30T07:16:52;24.10;81.72
64880;HTU21D;51374;45.124;36.712;2022-09-30T07:19:18;24.12;81.73
64880;HTU21D;51374;45.124;36.712;2022-09-30T07:21:48;24.16;81.70
64880;HTU21D;51374;45.124;36.712;2022-09-30T07:24:15;24.18;81.63
64880;HTU21D;51374;45.124;36.712;2022-09-30T07:26:41;24.21;81.60
64880;HTU21D;51374;45.124;36.712;2022-09-30T07:29:10;24.25;81.57
64880;HTU21D;51374;45.124;36.712;2022-09-30T07:31:38;24.28;81.52
64880;HTU21D;51374;45.124;36.712;2022-09-30T07:34:06;24.30;81.50
64880;HTU21D;51374;45.124;36.712;2022-09-30T07:36:32;24.33;81.49
64880;HTU21D;51374;45.124;36.712;2022-09-30T07:38:59;24.38;81.43
64880;HTU21D;51374;45.124;36.712;2022-09-30T07:41:29;24.43;81.38
64880;HTU21D;51374;45.124;36.712;2022-09-30T07:43:56;24.48;81.31
64880;HTU21D;51374;45.124;36.712;2022-09-30T07:46:26;24.55;81.20
64880;HTU21D;51374;45.124;36.712;2022-09-30T07:48:55;24.58;81.16
64880;HTU21D;51374;45.124;36.712;2022-09-30T07:51:36;24.62;81.10
64880;HTU21D;51374;45.124;36.712;2022-09-30T07:54:07;24.66;81.06
64880;HTU21D;51374;45.124;36.712;2022-09-30T07:56:34;24.71;81.00
64880;HTU21D;51374;45.124;36.712;2022-09-30T07:59:04;24.76;80.94
64880;HTU21D;51374;45.124;36.712;2022-09-30T08:01:30;24.79;80.87
64880;HTU21D;51374;45.124;36.712;2022-09-30T08:04:00;24.83;80.83
64880;HTU21D;51374;45.124;36.712;2022-09-30T08:06:28;24.86;80.78
64880;HTU21D;51374;45.124;36.712;2022-09-30T08:08:56;24.90;80.75
64880;HTU21D;51374;45.124;36.712;2022-09-30T08:11:23;24.94;80.71
64880;HTU21D;51374;45.124;36.712;2022-09-30T08:13:54;25.00;80.63
64880;HTU21D;51374;45.124;36.712;2022-09-30T08:16:21;25.04;80.55
64880;HTU21D;51374;45.124;36.712;2022-09-30T08:18:47;25.05;80.49
64880;HTU21D;51374;45.124;36.712;2022-09-30T08:21:13;25.06;80.49
64880;HTU21D;51374;45.124;36.712;2022-09-30T08:23:39;25.07;80.47
64880;HTU21D;51374;45.124;36.712;2022-09-30T08:26:08;25.12;80.44
64880;HTU21D;51374;45.124;36.712;2022-09-30T08:28:34;25.13;80.36
64880;HTU21D;51374;45.124;36.712;2022-09-30T08:31:04;25.17;80.38
64880;HTU21D;51374;45.124;36.712;2022-09-30T08:33:30;25.19;80.36
64880;HTU21D;51374;45.124;36.712;2022-09-30T08:36:07;25.23;80.33
64880;HTU21D;51374;45.124;36.712;2022-09-30T08:38:34;25.29;80.24
64880;HTU21D;51374;45.124;36.712;2022-09-30T08:43:48;25.36;80.17
64880;HTU21D;51374;45.124;36.712;2022-09-30T08:51:44;25.48;80.04
64880;HTU21D;51374;45.124;36.712;2022-09-30T08:54:14;25.51;80.00
64880;HTU21D;51374;45.124;36.712;2022-09-30T08:56:41;25.53;79.93
64880;HTU21D;51374;45.124;36.712;2022-09-30T09:05:03;25.53;79.85
64880;HTU21D;51374;45.124;36.712;2022-09-30T09:21:35;25.72;79.65
64880;HTU21D;51374;45.124;36.712;2022-09-30T09:24:13;25.75;79.58
64880;HTU21D;51374;45.124;36.712;2022-09-30T09:26:40;25.80;79.53
64880;HTU21D;51374;45.124;36.712;2022-09-30T09:32:14;25.89;79.47
64880;HTU21D;51374;45.124;36.712;2022-09-30T09:34:42;25.93;79.42
64880;HTU21D;51374;45.124;36.712;2022-09-30T09:37:25;25.97;79.37
64880;HTU21D;51374;45.124;36.712;2022-09-30T09:45:51;26.09;79.23
64880;HTU21D;51374;45.124;36.712;2022-09-30T09:48:20;26.12;79.17
64880;HTU21D;51374;45.124;36.712;2022-09-30T09:51:09;26.16;79.14
64880;HTU21D;51374;45.124;36.712;2022-09-30T09:56:21;26.22;79.07
64880;HTU21D;51374;45.124;36.712;2022-09-30T09:59:12;26.22;79.02
64880;HTU21D;51374;45.124;36.712;2022-09-30T10:01:52;26.25;79.05
64880;HTU21D;51374;45.124;36.712;2022-09-30T10:04:27;26.26;79.01
64880;HTU21D;51374;45.124;36.712;2022-09-30T10:07:14;26.30;78.95
64880;HTU21D;51374;45.124;36.712;2022-09-30T10:09:41;26.31;78.89
64880;HTU21D;51374;45.124;36.712;2022-09-30T10:17:03;26.36;78.82
64880;HTU21D;51374;45.124;36.712;2022-09-30T10:19:32;26.38;78.80
64880;HTU21D;51374;45.124;36.712;2022-09-30T10:24:36;26.39;78.69
64880;HTU21D;51374;45.124;36.712;2022-09-30T10:27:02;26.38;78.63
64880;HTU21D;51374;45.124;36.712;2022-09-30T10:29:32;26.37;78.60
64880;HTU21D;51374;45.124;36.712;2022-09-30T10:32:00;26.40;78.61
64880;HTU21D;51374;45.124;36.712;2022-09-30T10:34:36;26.43;78.53
64880;HTU21D;51374;45.124;36.712;2022-09-30T10:37:14;26.48;78.53
64880;HTU21D;51374;45.124;36.712;2022-09-30T10:39:42;26.53;78.40
64880;HTU21D;51374;45.124;36.712;2022-09-30T10:42:16;26.56;78.32
64880;HTU21D;51374;45.124;36.712;2022-09-30T10:44:57;26.61;78.30
64880;HTU21D;51374;45.124;36.712;2022-09-30T10:47:27;26.61;78.25
64880;HTU21D;51374;45.124;36.712;2022-09-30T10:49:59;26.66;78.26
64880;HTU21D;51374;45.124;36.712;2022-09-30T10:52:31;26.72;78.16
64880;HTU21D;51374;45.124;36.712;2022-09-30T10:55:13;26.79;78.12
64880;HTU21D;51374;45.124;36.712;2022-09-30T10:57:46;26.86;77.95
64880;HTU21D;51374;45.124;36.712;2022-09-30T11:00:23;26.92;77.92
64880;HTU21D;51374;45.124;36.712;2022-09-30T11:02:56;26.95;77.88
64880;HTU21D;51374;45.124;36.712;2022-09-30T11:05:26;26.99;77.85
64880;HTU21D;51374;45.124;36.712;2022-09-30T11:13:11;27.08;77.63
64880;HTU21D;51374;45.124;36.712;2022-09-30T11:15:55;27.12;77.63
64880;HTU21D;51374;45.124;36.712;2022-09-30T11:18:33;27.16;77.57
64880;HTU21D;51374;45.124;36.712;2022-09-30T11:21:04;27.19;77.53
64880;HTU21D;51374;45.124;36.712;2022-09-30T11:23:33;27.22;77.48
64880;HTU21D;51374;45.124;36.712;2022-09-30T11:26:24;27.24;77.44
64880;HTU21D;51374;45.124;36.712;2022-09-30T11:39:30;27.27;77.27
64880;HTU21D;51374;45.124;36.712;2022-09-30T11:42:18;27.27;77.27
64880;HTU21D;51374;45.124;36.712;2022-09-30T11:44:54;27.30;77.24
64880;HTU21D;51374;45.124;36.712;2022-09-30T11:50:58;27.34;77.10
64880;HTU21D;51374;45.124;36.712;2022-09-30T11:56:45;27.39;76.99
64880;HTU21D;51374;45.124;36.712;2022-09-30T11:59:24;27.40;76.96
64880;HTU21D;51374;45.124;36.712;2022-09-30T12:01:52;27.42;76.94
64880;HTU21D;51374;45.124;36.712;2022-09-30T12:04:31;27.43;76.88
64880;HTU21D;51374;45.124;36.712;2022-09-30T12:07:19;27.47;76.84
64880;HTU21D;51374;45.124;36.712;2022-09-30T12:09:58;27.52;76.79
64880;HTU21D;51374;45.124;36.712;2022-09-30T12:12:26;27.51;76.72
64880;HTU21D;51374;45.124;36.712;2022-09-30T12:15:04;27.51;76.69
64880;HTU21D;51374;45.124;36.712;2022-09-30T12:17:36;27.50;76.70
64880;HTU21D;51374;45.124;36.712;2022-09-30T12:22:43;27.46;76.55
64880;HTU21D;51374;45.124;36.712;2022-09-30T12:25:17;27.44;76.55
64880;HTU21D;51374;45.124;36.712;2022-09-30T12:27:49;27.40;76.50
64880;HTU21D;51374;45.124;36.712;2022-09-30T12:30:21;27.38;76.54
64880;HTU21D;51374;45.124;36.712;2022-09-30T12:38:12;27.20;76.54
64880;HTU21D;51374;45.124;36.712;2022-09-30T12:43:28;26.87;76.82
64880;HTU21D;51374;45.124;36.712;2022-09-30T12:46:25;26.69;77.08
64880;HTU21D;51374;45.124;36.712;2022-09-30T12:48:59;26.52;77.27
64880;HTU21D;51374;45.124;36.712;2022-09-30T12:54:15;26.31;77.45
64880;HTU21D;51374;45.124;36.712;2022-09-30T12:56:44;26.22;77.54
64880;HTU21D;51374;45.124;36.712;2022-09-30T12:59:15;26.13;77.60
64880;HTU21D;51374;45.124;36.712;2022-09-30T13:01:44;26.05;77.64
64880;HTU21D;51374;45.124;36.712;2022-09-30T13:04:16;25.92;77.78
64880;HTU21D;51374;45.124;36.712;2022-09-30T13:09:56;25.82;78.03
64880;HTU21D;51374;45.124;36.712;2022-09-30T13:12:38;25.88;77.96
64880;HTU21D;51374;45.124;36.712;2022-09-30T13:17:52;25.90;77.68
64880;HTU21D;51374;45.124;36.712;2022-09-30T13:23:44;25.66;77.91
64880;HTU21D;51374;45.124;36.712;2022-09-30T13:34:52;25.29;78.27
64880;HTU21D;51374;45.124;36.712;2022-09-30T13:37:34;25.23;78.39
64880;HTU21D;51374;45.124;36.712;2022-09-30T13:40:02;25.25;78.39
64880;HTU21D;51374;45.124;36.712;2022-09-30T13:42:35;25.23;78.36
64880;HTU21D;51374;45.124;36.712;2022-09-30T13:45:12;25.17;78.38
64880;HTU21D;51374;45.124;36.712;2022-09-30T13:50:35;25.17;78.40
64880;HTU21D;51374;45.124;36.712;2022-09-30T13:53:13;25.21;78.35
64880;HTU21D;51374;45.124;36.712;2022-09-30T13:55:42;25.22;78.32
64880;HTU21D;51374;45.124;36.712;2022-09-30T14:01:30;25.28;78.22
64880;HTU21D;51374;45.124;36.712;2022-09-30T14:09:42;25.21;78.18
64880;HTU21D;51374;45.124;36.712;2022-09-30T14:12:25;25.15;78.21
64880;HTU21D;51374;45.124;36.712;2022-09-30T14:17:44;25.06;78.30
64880;HTU21D;51374;45.124;36.712;2022-09-30T14:20:26;24.98;78.37
64880;HTU21D;51374;45.124;36.712;2022-09-30T14:22:55;24.92;78.44
64880;HTU21D;51374;45.124;36.712;2022-09-30T14:25:21;24.85;78.56
64880;HTU21D;51374;45.124;36.712;2022-09-30T14:30:20;24.66;78.76
64880;HTU21D;51374;45.124;36.712;2022-09-30T14:33:11;24.55;78.85
64880;HTU21D;51374;45.124;36.712;2022-09-30T14:35:41;24.45;78.96
64880;HTU21D;51374;45.124;36.712;2022-09-30T14:38:21;24.34;79.04
64880;HTU21D;51374;45.124;36.712;2022-09-30T14:41:03;24.26;79.12
64880;HTU21D;51374;45.124;36.712;2022-09-30T14:43:35;24.17;79.26
64880;HTU21D;51374;45.124;36.712;2022-09-30T14:46:08;24.06;79.34
64880;HTU21D;51374;45.124;36.712;2022-09-30T14:48:39;23.95;79.53
64880;HTU21D;51374;45.124;36.712;2022-09-30T14:51:11;23.86;79.69
64880;HTU21D;51374;45.124;36.712;2022-09-30T14:53:55;23.76;79.76
64880;HTU21D;51374;45.124;36.712;2022-09-30T14:56:26;23.70;79.84
64880;HTU21D;51374;45.124;36.712;2022-09-30T14:58:54;23.64;79.89
64880;HTU21D;51374;45.124;36.712;2022-09-30T15:01:23;23.55;79.95
64880;HTU21D;51374;45.124;36.712;2022-09-30T15:04:10;23.46;80.00
64880;HTU21D;51374;45.124;36.712;2022-09-30T15:06:38;23.38;80.11
64880;HTU21D;51374;45.124;36.712;2022-09-30T15:09:22;23.25;80.18
64880;HTU21D;51374;45.124;36.712;2022-09-30T15:11:50;23.14;80.32
64880;HTU21D;51374;45.124;36.712;2022-09-30T15:14:21;23.05;80.46
64880;HTU21D;51374;45.124;36.712;2022-09-30T15:16:51;22.96;80.62
64880;HTU21D;51374;45.124;36.712;2022-09-30T15:21:53;22.84;80.79
64880;HTU21D;51374;45.124;36.712;2022-09-30T15:24:21;22.78;80.85
64880;HTU21D;51374;45.124;36.712;2022-09-30T15:26:50;22.72;80.94
64880;HTU21D;51374;45.124;36.712;2022-09-30T15:29:17;22.68;81.02
64880;HTU21D;51374;45.124;36.712;2022-09-30T15:31:50;22.64;81.04
64880;HTU21D;51374;45.124;36.712;2022-09-30T15:34:19;22.63;81.07
64880;HTU21D;51374;45.124;36.712;2022-09-30T15:36:54;22.58;81.10
64880;HTU21D;51374;45.124;36.712;2022-09-30T15:39:24;22.54;81.14
64880;HTU21D;51374;45.124;36.712;2022-09-30T15:42:12;22.49;81.20
64880;HTU21D;51374;45.124;36.712;2022-09-30T15:44:39;22.46;81.23
64880;HTU21D;51374;45.124;36.712;2022-09-30T15:47:07;22.42;81.26
64880;HTU21D;51374;45.124;36.712;2022-09-30T15:54:56;22.35;81.42
64880;HTU21D;51374;45.124;36.712;2022-09-30T15:57:45;22.33;81.43
64880;HTU21D;51374;45.124;36.712;2022-09-30T16:03:28;22.29;81.52
64880;HTU21D;51374;45.124;36.712;2022-09-30T16:06:09;22.26;81.54
64880;HTU21D;51374;45.124;36.712;2022-09-30T16:08:41;22.26;81.58
64880;HTU21D;51374;45.124;36.712;2022-09-30T16:11:08;22.22;81.64
64880;HTU21D;51374;45.124;36.712;2022-09-30T16:13:37;22.20;81.66
64880;HTU21D;51374;45.124;36.712;2022-09-30T16:16:18;22.19;81.66
64880;HTU21D;51374;45.124;36.712;2022-09-30T16:18:46;22.17;81.71
64880;HTU21D;51374;45.124;36.712;2022-09-30T16:21:39;22.13;81.73
64880;HTU21D;51374;45.124;36.712;2022-09-30T16:26:48;22.08;81.84
64880;HTU21D;51374;45.124;36.712;2022-09-30T16:29:15;22.05;81.88
64880;HTU21D;51374;45.124;36.712;2022-09-30T16:31:43;22.03;81.92
64880;HTU21D;51374;45.124;36.712;2022-09-30T16:36:43;21.97;82.03
64880;HTU21D;51374;45.124;36.712;2022-09-30T16:39:11;21.97;82.08
64880;HTU21D;51374;45.124;36.712;2022-09-30T16:41:39;21.96;82.12
64880;HTU21D;51374;45.124;36.712;2022-09-30T16:44:05;21.94;82.13
64880;HTU21D;51374;45.124;36.712;2022-09-30T16:46:32;21.93;82.18
64880;HTU21D;51374;45.124;36.712;2022-09-30T16:48:58;21.91;82.24
64880;HTU21D;51374;45.124;36.712;2022-09-30T16:51:24;21.91;82.27
64880;HTU21D;51374;45.124;36.712;2022-09-30T16:53:51;21.90;82.29
64880;HTU21D;51374;45.124;36.712;2022-09-30T16:56:18;21.89;82.32
64880;HTU21D;51374;45.124;36.712;2022-09-30T16:58:45;21.88;82.31
64880;HTU21D;51374;45.124;36.712;2022-09-30T17:01:20;21.88;82.36
64880;HTU21D;51374;45.124;36.712;2022-09-30T17:03:46;21.85;82.42
64880;HTU21D;51374;45.124;36.712;2022-09-30T17:06:13;21.85;82.46
64880;HTU21D;51374;45.124;36.712;2022-09-30T17:08:40;21.84;82.46
64880;HTU21D;51374;45.124;36.712;2022-09-30T17:11:06;21.85;82.51
64880;HTU21D;51374;45.124;36.712;2022-09-30T17:13:32;21.83;82.55
64880;HTU21D;51374;45.124;36.712;2022-09-30T17:15:58;21.83;82.58
64880;HTU21D;51374;45.124;36.712;2022-09-30T17:18:26;21.82;82.61
64880;HTU21D;51374;45.124;36.712;2022-09-30T17:20:52;21.82;82.62
64880;HTU21D;51374;45.124;36.712;2022-09-30T17:23:19;21.80;82.62
64880;HTU21D;51374;45.124;36.712;2022-09-30T17:25:45;21.81;82.69
64880;HTU21D;51374;45.124;36.712;2022-09-30T17:28:12;21.80;82.69
64880;HTU21D;51374;45.124;36.712;2022-09-30T17:30:38;21.78;82.74
64880;HTU21D;51374;45.124;36.712;2022-09-30T17:33:08;21.78;82.69
64880;HTU21D;51374;45.124;36.712;2022-09-30T17:35:38;21.77;82.72
64880;HTU21D;51374;45.124;36.712;2022-09-30T17:38:09;21.75;82.78
64880;HTU21D;51374;45.124;36.712;2022-09-30T17:40:35;21.74;82.81
64880;HTU21D;51374;45.124;36.712;2022-09-30T17:43:21;21.72;82.83
64880;HTU21D;51374;45.124;36.712;2022-09-30T17:45:47;21.69;82.87
64880;HTU21D;51374;45.124;36.712;2022-09-30T17:48:16;21.69;82.91
64880;HTU21D;51374;45.124;36.712;2022-09-30T17:50:47;21.67;82.92
64880;HTU21D;51374;45.124;36.712;2022-09-30T17:53:15;21.66;82.98
64880;HTU21D;51374;45.124;36.712;2022-09-30T17:55:45;21.63;83.02
64880;HTU21D;51374;45.124;36.712;2022-09-30T17:58:13;21.64;83.03
64880;HTU21D;51374;45.124;36.712;2022-09-30T18:00:40;21.62;83.07
64880;HTU21D;51374;45.124;36.712;2022-09-30T18:03:07;21.62;83.10
64880;HTU21D;51374;45.124;36.712;2022-09-30T18:05:35;21.60;83.15
64880;HTU21D;51374;45.124;36.712;2022-09-30T18:08:01;21.61;83.17
64880;HTU21D;51374;45.124;36.712;2022-09-30T18:10:27;21.59;83.19
64880;HTU21D;51374;45.124;36.712;2022-09-30T18:12:54;21.60;83.23
64880;HTU21D;51374;45.124;36.712;2022-09-30T18:15:23;21.60;83.25
64880;HTU21D;51374;45.124;36.712;2022-09-30T18:17:49;21.59;83.29
64880;HTU21D;51374;45.124;36.712;2022-09-30T18:20:15;21.57;83.35
64880;HTU21D;51374;45.124;36.712;2022-09-30T18:22:41;21.58;83.36
64880;HTU21D;51374;45.124;36.712;2022-09-30T18:25:07;21.59;83.39
64880;HTU21D;51374;45.124;36.712;2022-09-30T18:28:05;21.58;83.40
64880;HTU21D;51374;45.124;36.712;2022-09-30T18:30:34;21.59;83.42
64880;HTU21D;51374;45.124;36.712;2022-09-30T18:33:00;21.60;83.42
64880;HTU21D;51374;45.124;36.712;2022-09-30T18:35:26;21.61;83.46